Climbing Hill, Iowa
Current Conditions -  °F | °C
As of 4:52 PM on Friday 31 Oct 2014 (Local Time) from KSUX Reporting Station
Clear Clear  
Wind Chill: 42°   Ceiling: Unl
Heat Index: 42°   Visibility: 10mi
Dew Point: 17°   Wind: 3mph
Humidity: 37%   Direction: 100°E
Pressure: 30.49"   Gusts: NA
Location:  42.34°N, 96.08°W
Report Text: KSUX 312152Z AUTO 10003KT 10SM CLR 06/M08 A3049 RMK AO2 SLP336 T00561083
Loading
Personal Weather Stations






























Interactive Weather Map
Tropical Storm Tracking
New forecast layout! Learn more

10-Day Weather Forecast

Advertisements
Track Severe Weather on mobile